메인 페이지
METAR-TAF:

METAR-TAF

공항 :

Pisco, 페루

위도: 13-45S, 경도: 076-17W, 고도: 8m

현재 날씨관측

예보는 42분 전, 20:00시(UTC)에 발표되었습니다.
남서18kt
온도 22°C
습도 69%
기압 1011 hPa
시정 10km 이상
1500m 미만 상공 구름 및 적란운 없음

METAR: SPSO 182000Z 23018KT CAVOK 22/16 Q1011 RMK BIRD HAZARD RWY 22/04 PP000

시각: 15:42 (20:42 UTC)

예보

예보는 3 시간 42분 전, 17:00시(UTC)에 발표되었습니다.
예보 대상 시간: 18일 18시부터 19일 18시까지 (UTC)
남서10kt
시정 10km 이상
1500m 미만 상공 구름 및 적란운 없음
전환 중
18일 19시부터 18일 21시까지 (UTC)
남서20kt
전환 중
19일 02시부터 19일 04시까지 (UTC)
남남서7kt
전환 중
19일 08시부터 19일 10시까지 (UTC)
시정: 4000m
박무
전환 중
19일 13시부터 19일 15시까지 (UTC)
서북서10kt
시정: 7000m

TAF: SPSO 181700Z 1818/1918 23010KT CAVOK TX23/1819Z TN16/1911Z BECMG 1819/1821 22020KT BECMG 1902/1904 20007KT BECMG 1908/1910 4000 BR NSC BECMG 1913/1915 30010KT 7000 NSW

4,000개 이상의 공항 관측 자료 및 예보 (METAR 및 TAF 보고).

지도상에서 검색 가능한 기상관측소가 노란 점과 빨간 점으로 표시되어 있습니다.

기상관측소 명을 보려면 표시 위로 마우스를 이동하세요.

날씨 관측과 예보를 보려면 클릭하세요.

지도 변경 : 확대하려면 엑스 표시가 있는 녹색 버튼, 축소하려면 빼기 표시가 있는 녹색 버튼, 다음 페이지의 지도를 보려면 녹색 화살표를 클릭하세요.


METAR-TAF: